Time;durP1;ratioP1;P1;durP2;ratioP2;P2;SDS_P1;SDS_P2;PMS_P1;PMS_P2;Temp;Humidity;BMP_temperature;BMP_pressure;BME280_temperature;BME280_humidity;BME280_pressure;Samples;Min_cycle;Max_cycle;Signal;HPM_P1;HPM_P2
2022/08/16 00:02:07;;;;;;;8.27;6.60;;;;;;;;;;5131938;27;20228;-60
2022/08/16 00:04:33;;;;;;;9.87;7.37;;;;;;;;;;5132902;27;20263;-59
2022/08/16 00:06:59;;;;;;;7.40;6.47;;;;;;;;;;5131870;27;20233;-58
2022/08/16 00:09:25;;;;;;;9.80;7.13;;;;;;;;;;5132962;27;20466;-62
2022/08/16 00:11:53;;;;;;;7.40;6.10;;;;;;;;;;5132795;27;20236;-57
2022/08/16 00:14:20;;;;;;;7.60;6.83;;;;;;;;;;5132754;27;20252;-59
2022/08/16 00:16:47;;;;;;;7.97;6.40;;;;;;;;;;5132948;27;20190;-61
2022/08/16 00:19:13;;;;;;;10.77;6.40;;;;;;;;;;5132629;27;20202;-61
2022/08/16 00:21:39;;;;;;;7.10;6.40;;;;;;;;;;5132741;27;20206;-58
2022/08/16 00:24:05;;;;;;;9.93;6.63;;;;;;;;;;5131286;27;20197;-61
2022/08/16 00:26:31;;;;;;;13.43;7.10;;;;;;;;;;5133099;27;20198;-61
2022/08/16 00:28:59;;;;;;;8.50;7.60;;;;;;;;;;5132593;27;20629;-61
2022/08/16 00:31:25;;;;;;;9.30;7.93;;;;;;;;;;5132350;27;20208;-61
2022/08/16 00:33:51;;;;;;;10.17;7.73;;;;;;;;;;5132575;27;20289;-61
2022/08/16 00:36:17;;;;;;;9.10;8.10;;;;;;;;;;5132422;27;20213;-58
2022/08/16 00:38:43;;;;;;;9.27;7.77;;;;;;;;;;5131881;27;20189;-61
2022/08/16 00:41:09;;;;;;;8.47;7.57;;;;;;;;;;5131989;27;20204;-61
2022/08/16 00:43:36;;;;;;;8.53;7.30;;;;;;;;;;5132284;27;20201;-61
2022/08/16 00:46:07;;;;;;;7.97;7.10;;;;;;;;;;5132232;27;20274;-58
2022/08/16 00:48:33;;;;;;;8.20;7.50;;;;;;;;;;5131817;27;20228;-59
2022/08/16 00:50:59;;;;;;;8.73;7.83;;;;;;;;;;5130639;27;20205;-59
2022/08/16 00:53:25;;;;;;;10.57;7.80;;;;;;;;;;5131911;27;20225;-59
2022/08/16 00:55:52;;;;;;;6.87;6.27;;;;;;;;;;5132146;28;20215;-59
2022/08/16 00:58:18;;;;;;;10.13;7.80;;;;;;;;;;5132154;27;20242;-59
2022/08/16 01:00:46;;;;;;;8.47;7.67;;;;;;;;;;5132465;28;20200;-62
2022/08/16 01:03:14;;;;;;;7.93;7.10;;;;;;;;;;5132303;27;20197;-62
2022/08/16 01:05:41;;;;;;;7.70;6.97;;;;;;;;;;5132451;28;20193;-61
2022/08/16 01:08:09;;;;;;;7.27;6.47;;;;;;;;;;5131948;28;20705;-59
2022/08/16 01:10:35;;;;;;;9.70;7.00;;;;;;;;;;5132317;28;20193;-59
2022/08/16 01:13:06;;;;;;;7.73;6.80;;;;;;;;;;5132246;28;20202;-61
2022/08/16 01:15:33;;;;;;;8.10;6.50;;;;;;;;;;5134306;27;20561;-59
2022/08/16 01:17:59;;;;;;;8.23;6.97;;;;;;;;;;5135083;27;20197;-59
2022/08/16 01:20:31;;;;;;;9.00;7.00;;;;;;;;;;5136005;27;20206;-62
2022/08/16 01:23:01;;;;;;;9.50;7.20;;;;;;;;;;5136471;27;20676;-61
2022/08/16 01:25:30;;;;;;;8.07;7.00;;;;;;;;;;5136253;27;20197;-62
2022/08/16 01:27:58;;;;;;;8.00;6.83;;;;;;;;;;5136073;27;20266;-59
2022/08/16 01:30:25;;;;;;;7.43;6.73;;;;;;;;;;5136305;27;20192;-59
2022/08/16 01:32:52;;;;;;;11.00;7.43;;;;;;;;;;5136001;27;20254;-59
2022/08/16 01:35:20;;;;;;;9.23;6.97;;;;;;;;;;5136028;27;20250;-59
2022/08/16 01:37:47;;;;;;;8.67;7.13;;;;;;;;;;5136072;27;20190;-59
2022/08/16 01:40:14;;;;;;;7.40;6.57;;;;;;;;;;5136060;27;20195;-61
2022/08/16 01:42:42;;;;;;;7.90;7.10;;;;;;;;;;5135256;27;20248;-58
2022/08/16 01:45:08;;;;;;;10.97;7.33;;;;;;;;;;5135997;27;20579;-59
2022/08/16 01:47:35;;;;;;;8.03;7.17;;;;;;;;;;5134609;27;20343;-59
2022/08/16 01:53:05;;;;;;;8.57;6.63;;;;;;;;;;5135946;27;20230;-59
2022/08/16 01:55:31;;;;;;;8.17;7.37;;;;;;;;;;5135772;27;20601;-58
2022/08/16 01:57:58;;;;;;;7.87;6.80;;;;;;;;;;5135544;27;20251;-59
2022/08/16 02:00:24;;;;;;;11.03;7.27;;;;;;;;;;5135501;27;20668;-61
2022/08/16 02:02:50;;;;;;;9.60;7.33;;;;;;;;;;5135575;27;20256;-59
2022/08/16 02:05:16;;;;;;;7.33;6.63;;;;;;;;;;5135632;27;20229;-59
2022/08/16 02:07:42;;;;;;;9.53;7.10;;;;;;;;;;5134836;27;20265;-61
2022/08/16 02:10:09;;;;;;;11.20;7.03;;;;;;;;;;5134272;28;20563;-59
2022/08/16 02:12:35;;;;;;;8.47;6.90;;;;;;;;;;5131732;28;20566;-61
2022/08/16 02:15:03;;;;;;;6.90;6.20;;;;;;;;;;5134253;28;20202;-59
2022/08/16 02:17:29;;;;;;;7.97;7.13;;;;;;;;;;5134267;28;20203;-59
2022/08/16 02:19:56;;;;;;;9.30;6.70;;;;;;;;;;5133901;28;20208;-58
2022/08/16 02:22:24;;;;;;;7.13;6.47;;;;;;;;;;5134082;28;21019;-61
2022/08/16 02:24:51;;;;;;;8.73;6.80;;;;;;;;;;5134148;27;20675;-62
2022/08/16 02:27:17;;;;;;;7.43;6.63;;;;;;;;;;5131849;27;20229;-61
2022/08/16 02:29:43;;;;;;;8.73;7.23;;;;;;;;;;5133830;28;20193;-59
2022/08/16 02:32:16;;;;;;;9.53;7.90;;;;;;;;;;5133952;28;21000;-62
2022/08/16 02:34:43;;;;;;;8.77;7.77;;;;;;;;;;5133858;28;20246;-59
2022/08/16 02:37:09;;;;;;;9.30;8.00;;;;;;;;;;5133724;27;20198;-58
2022/08/16 02:39:35;;;;;;;9.50;8.60;;;;;;;;;;5132511;27;20402;-61
2022/08/16 02:42:01;;;;;;;8.03;7.17;;;;;;;;;;5133698;28;20205;-59
2022/08/16 02:44:27;;;;;;;8.33;7.53;;;;;;;;;;5133587;28;20220;-59
2022/08/16 02:46:53;;;;;;;10.17;7.57;;;;;;;;;;5133352;28;20205;-59
2022/08/16 02:49:22;;;;;;;8.13;7.33;;;;;;;;;;5133556;28;20232;-58
2022/08/16 02:51:48;;;;;;;8.93;8.07;;;;;;;;;;5133349;27;20236;-61
2022/08/16 02:54:14;;;;;;;8.13;7.33;;;;;;;;;;5133788;28;20222;-61
2022/08/16 02:56:40;;;;;;;8.70;7.90;;;;;;;;;;5133278;28;20609;-61
2022/08/16 02:59:06;;;;;;;8.97;7.93;;;;;;;;;;5133584;28;20185;-62
2022/08/16 03:01:32;;;;;;;8.80;7.53;;;;;;;;;;5133466;28;20204;-59
2022/08/16 03:03:59;;;;;;;8.97;7.70;;;;;;;;;;5133470;28;20202;-59
2022/08/16 03:06:27;;;;;;;8.63;7.83;;;;;;;;;;5133392;28;20621;-58
2022/08/16 03:08:53;;;;;;;8.97;7.37;;;;;;;;;;5097742;27;1018587;-59
2022/08/16 03:11:20;;;;;;;8.33;7.57;;;;;;;;;;5133014;27;20290;-59
2022/08/16 03:13:47;;;;;;;9.77;8.50;;;;;;;;;;5134315;27;20219;-59
2022/08/16 03:16:13;;;;;;;9.00;7.53;;;;;;;;;;5134386;27;20214;-59
2022/08/16 03:18:40;;;;;;;8.80;7.00;;;;;;;;;;5133910;27;20814;-59
2022/08/16 03:21:06;;;;;;;9.13;7.50;;;;;;;;;;5133958;27;20693;-61
2022/08/16 03:23:34;;;;;;;9.00;7.70;;;;;;;;;;5134080;27;20247;-59
2022/08/16 03:26:00;;;;;;;10.97;7.97;;;;;;;;;;5133915;27;20205;-59
2022/08/16 03:28:26;;;;;;;7.67;6.97;;;;;;;;;;5133717;27;20230;-59
2022/08/16 03:30:52;;;;;;;9.53;7.23;;;;;;;;;;5133828;27;20253;-59
2022/08/16 03:33:18;;;;;;;8.93;7.10;;;;;;;;;;5133875;27;20204;-56
2022/08/16 03:35:44;;;;;;;7.80;6.87;;;;;;;;;;5133792;27;20276;-52
2022/08/16 03:38:12;;;;;;;9.57;7.63;;;;;;;;;;5132784;27;20620;-53
2022/08/16 03:40:41;;;;;;;8.03;7.23;;;;;;;;;;5133431;27;20212;-49
2022/08/16 03:43:09;;;;;;;10.60;9.50;;;;;;;;;;5133533;27;20203;-49
2022/08/16 03:45:35;;;;;;;11.03;9.83;;;;;;;;;;5133433;27;20581;-50
2022/08/16 03:48:01;;;;;;;15.50;8.90;;;;;;;;;;5133526;27;20231;-51
2022/08/16 03:50:28;;;;;;;9.63;8.73;;;;;;;;;;5131697;27;20272;-49
2022/08/16 03:52:54;;;;;;;10.63;9.50;;;;;;;;;;5132730;27;20660;-49
2022/08/16 03:55:20;;;;;;;11.83;10.43;;;;;;;;;;5132252;27;20198;-51
2022/08/16 03:57:48;;;;;;;12.10;10.80;;;;;;;;;;5133126;27;20189;-50
2022/08/16 04:00:16;;;;;;;10.20;8.47;;;;;;;;;;5133339;27;20197;-50
2022/08/16 04:02:43;;;;;;;12.07;10.93;;;;;;;;;;5133067;27;20246;-49
2022/08/16 04:05:09;;;;;;;11.57;10.37;;;;;;;;;;5133129;27;20204;-50
2022/08/16 04:07:35;;;;;;;10.70;9.63;;;;;;;;;;5132691;27;20344;-52
2022/08/16 04:10:02;;;;;;;10.33;8.90;;;;;;;;;;5132854;27;20784;-52
2022/08/16 04:12:28;;;;;;;10.77;9.20;;;;;;;;;;5131941;27;20193;-52
2022/08/16 04:14:55;;;;;;;9.60;8.60;;;;;;;;;;5132591;27;20590;-52
2022/08/16 04:17:21;;;;;;;9.93;8.93;;;;;;;;;;5132732;27;20223;-52
2022/08/16 04:19:47;;;;;;;11.87;8.63;;;;;;;;;;5132765;27;20201;-53
2022/08/16 04:22:13;;;;;;;10.07;9.10;;;;;;;;;;5132821;27;20227;-53
2022/08/16 04:24:40;;;;;;;10.47;9.57;;;;;;;;;;5132708;27;20210;-53
2022/08/16 04:27:06;;;;;;;10.27;9.30;;;;;;;;;;5132510;27;20205;-53
2022/08/16 04:29:32;;;;;;;14.40;10.67;;;;;;;;;;5132759;27;20663;-53
2022/08/16 04:32:00;;;;;;;10.73;9.27;;;;;;;;;;5132785;27;20287;-53
2022/08/16 04:34:27;;;;;;;10.33;9.30;;;;;;;;;;5132643;27;20276;-53
2022/08/16 04:36:53;;;;;;;8.43;7.60;;;;;;;;;;5132433;27;20201;-53
2022/08/16 04:39:19;;;;;;;12.10;9.00;;;;;;;;;;5132189;27;20201;-53
2022/08/16 04:41:45;;;;;;;14.90;8.77;;;;;;;;;;5132473;27;20197;-53
2022/08/16 04:44:12;;;;;;;8.97;8.20;;;;;;;;;;5132368;27;20267;-53
2022/08/16 04:46:39;;;;;;;13.17;9.63;;;;;;;;;;5132050;27;20200;-54
2022/08/16 04:49:06;;;;;;;11.20;10.17;;;;;;;;;;5129824;27;20224;-53
2022/08/16 04:51:32;;;;;;;11.00;10.00;;;;;;;;;;5132458;27;20200;-54
2022/08/16 04:53:58;;;;;;;9.10;8.20;;;;;;;;;;5132189;27;20223;-54
2022/08/16 04:56:24;;;;;;;11.30;9.30;;;;;;;;;;5132066;27;20246;-54
2022/08/16 04:58:50;;;;;;;11.07;10.13;;;;;;;;;;5130881;27;20884;-54
2022/08/16 05:01:17;;;;;;;9.40;8.60;;;;;;;;;;5131876;28;20196;-54
2022/08/16 05:03:43;;;;;;;10.17;9.27;;;;;;;;;;5130430;28;20610;-53
2022/08/16 05:06:11;;;;;;;8.97;8.27;;;;;;;;;;5131294;28;20254;-54
2022/08/16 05:08:37;;;;;;;9.10;8.20;;;;;;;;;;5131853;27;20240;-54
2022/08/16 05:11:04;;;;;;;10.67;9.57;;;;;;;;;;5132012;28;20203;-53
2022/08/16 05:13:30;;;;;;;10.63;9.77;;;;;;;;;;5132261;28;20278;-53
2022/08/16 05:15:56;;;;;;;12.03;11.03;;;;;;;;;;5132001;28;20807;-54
2022/08/16 05:18:22;;;;;;;13.02;11.93;;;;;;;;;;5128818;28;20390;-54
2022/08/16 05:20:48;;;;;;;12.77;11.75;;;;;;;;;;5129658;28;20402;-53
2022/08/16 05:23:16;;;;;;;11.77;10.82;;;;;;;;;;5130714;28;20395;-54
2022/08/16 05:25:42;;;;;;;11.20;10.20;;;;;;;;;;5131378;28;20200;-54
2022/08/16 05:28:09;;;;;;;11.73;10.63;;;;;;;;;;5131071;28;20223;-54
2022/08/16 05:30:35;;;;;;;12.90;11.60;;;;;;;;;;5130880;27;20444;-54
2022/08/16 05:33:02;;;;;;;13.30;12.10;;;;;;;;;;5130523;28;20398;-55
2022/08/16 05:35:28;;;;;;;14.02;12.80;;;;;;;;;;5130239;28;20485;-54
2022/08/16 05:37:54;;;;;;;13.50;12.30;;;;;;;;;;5129217;28;20470;-54
2022/08/16 05:40:21;;;;;;;14.93;12.10;;;;;;;;;;5131275;28;20689;-54
2022/08/16 05:42:47;;;;;;;11.93;11.00;;;;;;;;;;5131818;28;20197;-54
2022/08/16 05:45:13;;;;;;;14.40;13.07;;;;;;;;;;5130193;28;20408;-54
2022/08/16 05:47:39;;;;;;;14.68;13.27;;;;;;;;;;5129645;28;20480;-54
2022/08/16 05:50:06;;;;;;;14.25;12.95;;;;;;;;;;5128141;28;20406;-54
2022/08/16 05:52:32;;;;;;;14.87;13.47;;;;;;;;;;5130493;28;20415;-56
2022/08/16 05:54:57;;;;;;;12.75;11.65;;;;;;;;;;5129865;28;20412;-56
2022/08/16 05:57:25;;;;;;;12.70;11.60;;;;;;;;;;5130194;28;20869;-56
2022/08/16 05:59:51;;;;;;;12.10;11.05;;;;;;;;;;5130254;28;20406;-56
2022/08/16 06:02:17;;;;;;;18.33;13.30;;;;;;;;;;5134331;27;20297;-55
2022/08/16 06:04:43;;;;;;;12.32;11.30;;;;;;;;;;5131595;27;20398;-56
2022/08/16 06:07:10;;;;;;;12.25;11.15;;;;;;;;;;5133314;27;20447;-56
2022/08/16 06:09:36;;;;;;;12.90;11.70;;;;;;;;;;5133905;27;20459;-58
2022/08/16 06:12:02;;;;;;;12.00;10.80;;;;;;;;;;5133891;27;20460;-55
2022/08/16 06:14:30;;;;;;;12.97;11.67;;;;;;;;;;5135217;27;20197;-56
2022/08/16 06:16:56;;;;;;;11.67;10.70;;;;;;;;;;5134963;27;20201;-56
2022/08/16 06:19:22;;;;;;;13.70;12.17;;;;;;;;;;5135181;27;20613;-56
2022/08/16 06:21:48;;;;;;;13.80;11.30;;;;;;;;;;5133776;27;20197;-57
2022/08/16 06:24:14;;;;;;;11.37;10.30;;;;;;;;;;5134818;27;20218;-57
2022/08/16 06:26:41;;;;;;;12.73;11.63;;;;;;;;;;5133649;27;20485;-58
2022/08/16 06:29:07;;;;;;;13.25;12.02;;;;;;;;;;5133548;27;20414;-57
2022/08/16 06:31:34;;;;;;;11.50;10.52;;;;;;;;;;5133192;27;20391;-58
2022/08/16 06:34:00;;;;;;;11.50;10.40;;;;;;;;;;5135151;27;20198;-54
2022/08/16 06:36:28;;;;;;;11.50;10.50;;;;;;;;;;5129918;27;20258;-55
2022/08/16 06:38:54;;;;;;;12.83;9.63;;;;;;;;;;5128398;27;20624;-55
2022/08/16 06:41:20;;;;;;;10.00;9.10;;;;;;;;;;5133691;27;20185;-54
2022/08/16 06:43:46;;;;;;;11.80;10.70;;;;;;;;;;5131140;27;20390;-55
2022/08/16 06:46:21;;;;;;;10.73;9.83;;;;;;;;;;5131711;27;20727;-55
2022/08/16 06:52:04;;;;;;;11.68;10.70;;;;;;;;;;5089213;28;20481;-55
2022/08/16 06:54:30;;;;;;;11.30;10.20;;;;;;;;;;5129171;27;20418;-55
2022/08/16 06:56:56;;;;;;;8.90;8.20;;;;;;;;;;5134754;27;20194;-55
2022/08/16 06:59:22;;;;;;;9.67;8.67;;;;;;;;;;5134854;27;20873;-55
2022/08/16 07:01:48;;;;;;;11.15;10.07;;;;;;;;;;5133442;27;20389;-55
2022/08/16 07:04:14;;;;;;;9.93;9.03;;;;;;;;;;5133784;27;20390;-55
2022/08/16 07:06:41;;;;;;;9.10;8.20;;;;;;;;;;5133344;27;20408;-57
2022/08/16 07:09:10;;;;;;;9.77;8.03;;;;;;;;;;5134368;27;20225;-55
2022/08/16 07:11:36;;;;;;;7.77;6.97;;;;;;;;;;5134516;27;20624;-55
2022/08/16 07:14:02;;;;;;;7.23;6.53;;;;;;;;;;5133482;27;20684;-55
2022/08/16 07:16:28;;;;;;;7.45;6.80;;;;;;;;;;5133305;27;20401;-55
2022/08/16 07:18:54;;;;;;;7.00;6.32;;;;;;;;;;5132942;27;20418;-55
2022/08/16 07:21:21;;;;;;;9.38;7.63;;;;;;;;;;5133127;27;20398;-55
2022/08/16 07:23:47;;;;;;;8.05;6.30;;;;;;;;;;5133173;27;20400;-55
2022/08/16 07:26:18;;;;;;;7.53;6.85;;;;;;;;;;5133073;27;20394;-55
2022/08/16 07:28:44;;;;;;;6.43;5.93;;;;;;;;;;5134326;27;20311;-55
2022/08/16 07:31:10;;;;;;;7.13;6.43;;;;;;;;;;5133813;27;20294;-55
2022/08/16 07:33:36;;;;;;;6.60;6.00;;;;;;;;;;5131949;27;20198;-56
2022/08/16 07:36:03;;;;;;;6.60;5.87;;;;;;;;;;5131934;27;20205;-56
2022/08/16 07:38:29;;;;;;;8.43;6.80;;;;;;;;;;5133635;27;20293;-55
2022/08/16 07:40:55;;;;;;;6.63;5.93;;;;;;;;;;5133595;27;20267;-55
2022/08/16 07:43:23;;;;;;;7.07;6.37;;;;;;;;;;5133396;27;20209;-56
2022/08/16 07:45:49;;;;;;;6.50;5.93;;;;;;;;;;5133722;27;20680;-56
2022/08/16 07:48:15;;;;;;;7.20;5.67;;;;;;;;;;5131791;27;20236;-56
2022/08/16 07:50:41;;;;;;;6.33;5.33;;;;;;;;;;5128958;27;20282;-54
2022/08/16 07:53:07;;;;;;;5.90;5.30;;;;;;;;;;5131350;27;20248;-54
2022/08/16 07:55:34;;;;;;;6.53;5.17;;;;;;;;;;5128056;27;20206;-54
2022/08/16 07:58:00;;;;;;;6.17;5.57;;;;;;;;;;5111193;28;20243;-55
2022/08/16 08:00:28;;;;;;;7.67;5.73;;;;;;;;;;5112622;28;20657;-54
2022/08/16 08:02:54;;;;;;;7.73;5.10;;;;;;;;;;5114195;27;20203;-54
2022/08/16 08:05:21;;;;;;;6.00;5.07;;;;;;;;;;5131901;27;20282;-54
2022/08/16 08:07:47;;;;;;;7.03;4.93;;;;;;;;;;5132325;27;20670;-54
2022/08/16 08:10:13;;;;;;;5.75;5.05;;;;;;;;;;5130207;27;20494;-55
2022/08/16 08:12:39;;;;;;;6.72;5.05;;;;;;;;;;5130792;27;21148;-55
2022/08/16 08:15:06;;;;;;;6.45;5.18;;;;;;;;;;5130670;27;20934;-55
2022/08/16 08:17:37;;;;;;;5.53;4.85;;;;;;;;;;5129692;27;20394;-55
2022/08/16 08:20:04;;;;;;;6.82;5.20;;;;;;;;;;5131546;27;20767;-55
2022/08/16 08:22:30;;;;;;;5.40;4.40;;;;;;;;;;5132757;27;20200;-55
2022/08/16 08:24:56;;;;;;;6.80;4.10;;;;;;;;;;5131320;27;20614;-54
2022/08/16 08:27:22;;;;;;;4.93;4.10;;;;;;;;;;5130367;27;20200;-54
2022/08/16 08:29:48;;;;;;;4.70;4.30;;;;;;;;;;5130326;27;20399;-54
2022/08/16 08:32:14;;;;;;;5.70;4.68;;;;;;;;;;5131185;27;20429;-54
2022/08/16 08:34:42;;;;;;;5.93;5.18;;;;;;;;;;5129197;27;20418;-54
2022/08/16 08:37:08;;;;;;;5.03;4.60;;;;;;;;;;5130856;27;20427;-54
2022/08/16 08:39:34;;;;;;;6.38;5.20;;;;;;;;;;5130941;27;20794;-55
2022/08/16 08:42:01;;;;;;;6.35;5.45;;;;;;;;;;5131123;27;20406;-55
2022/08/16 08:44:27;;;;;;;7.20;5.22;;;;;;;;;;5131145;27;20395;-54
2022/08/16 08:46:56;;;;;;;5.35;4.70;;;;;;;;;;5130802;27;20394;-55
2022/08/16 08:49:22;;;;;;;5.22;4.72;;;;;;;;;;5130728;27;20425;-55
2022/08/16 08:51:49;;;;;;;5.75;5.10;;;;;;;;;;5130292;27;20734;-55
2022/08/16 08:54:15;;;;;;;5.53;4.90;;;;;;;;;;5130334;27;20877;-55
2022/08/16 08:56:41;;;;;;;5.85;5.00;;;;;;;;;;5130885;27;20419;-55
2022/08/16 08:59:08;;;;;;;5.85;5.13;;;;;;;;;;5130930;27;20779;-55
2022/08/16 09:01:35;;;;;;;7.60;5.40;;;;;;;;;;5130871;27;20390;-55
2022/08/16 09:04:02;;;;;;;5.70;5.20;;;;;;;;;;5130245;28;20402;-55
2022/08/16 09:06:29;;;;;;;5.47;4.93;;;;;;;;;;5131124;28;20443;-55
2022/08/16 09:08:57;;;;;;;7.75;5.50;;;;;;;;;;5130194;28;20738;-55
2022/08/16 09:11:24;;;;;;;5.82;5.22;;;;;;;;;;5131057;27;20417;-55
2022/08/16 09:13:50;;;;;;;5.43;4.65;;;;;;;;;;5130652;28;20420;-55
2022/08/16 09:16:16;;;;;;;5.50;4.80;;;;;;;;;;5130659;28;20399;-54
2022/08/16 09:18:42;;;;;;;7.72;5.20;;;;;;;;;;5130835;28;20409;-56
2022/08/16 09:21:08;;;;;;;5.03;4.40;;;;;;;;;;5130678;28;20787;-57
2022/08/16 09:23:35;;;;;;;6.57;5.03;;;;;;;;;;5112363;28;20817;-56
2022/08/16 09:26:03;;;;;;;5.28;4.65;;;;;;;;;;5130602;28;20399;-56
2022/08/16 09:28:29;;;;;;;5.90;4.70;;;;;;;;;;5130440;27;20452;-56
2022/08/16 09:30:55;;;;;;;5.40;4.60;;;;;;;;;;5130641;28;20402;-56
2022/08/16 09:33:21;;;;;;;11.27;5.78;;;;;;;;;;5130145;28;20928;-56
2022/08/16 09:35:48;;;;;;;6.20;5.25;;;;;;;;;;5128751;27;20390;-55
2022/08/16 09:38:14;;;;;;;8.35;5.40;;;;;;;;;;5133729;27;20385;-55
2022/08/16 09:40:40;;;;;;;5.63;4.85;;;;;;;;;;5133444;27;20386;-56
2022/08/16 09:43:07;;;;;;;6.82;5.00;;;;;;;;;;5134399;27;20403;-57
2022/08/16 09:45:37;;;;;;;7.23;5.07;;;;;;;;;;5134162;27;20964;-56
2022/08/16 09:48:04;;;;;;;6.45;4.72;;;;;;;;;;5133885;27;20505;-56
2022/08/16 09:50:31;;;;;;;6.40;5.28;;;;;;;;;;5134452;27;20397;-56
2022/08/16 09:52:57;;;;;;;7.35;5.18;;;;;;;;;;5133154;27;20391;-56
2022/08/16 09:55:23;;;;;;;6.88;5.75;;;;;;;;;;5134253;27;20488;-56
2022/08/16 09:57:49;;;;;;;7.07;5.50;;;;;;;;;;5132884;27;20386;-56
2022/08/16 10:00:17;;;;;;;5.85;4.78;;;;;;;;;;5134323;27;20398;-55
2022/08/16 10:02:43;;;;;;;7.65;4.82;;;;;;;;;;5134218;27;20473;-55
2022/08/16 10:05:10;;;;;;;6.50;4.53;;;;;;;;;;5133620;27;21017;-56
2022/08/16 10:07:36;;;;;;;5.90;4.80;;;;;;;;;;5133931;27;20538;-56
2022/08/16 10:10:02;;;;;;;5.07;4.55;;;;;;;;;;5131514;27;20428;-56
2022/08/16 10:15:15;;;;;;;6.60;4.60;;;;;;;;;;5134204;27;20424;-56
2022/08/16 10:17:42;;;;;;;5.65;4.85;;;;;;;;;;5133812;27;20766;-56
2022/08/16 10:20:10;;;;;;;5.43;4.13;;;;;;;;;;5133842;27;20900;-56
2022/08/16 10:22:36;;;;;;;6.47;4.40;;;;;;;;;;5134486;27;20413;-55
2022/08/16 10:25:02;;;;;;;6.40;4.50;;;;;;;;;;5134303;27;20972;-55
2022/08/16 10:27:28;;;;;;;5.70;4.30;;;;;;;;;;5130343;27;20475;-60
2022/08/16 10:29:54;;;;;;;5.03;4.00;;;;;;;;;;5132968;27;21072;-57
2022/08/16 10:32:20;;;;;;;4.97;3.67;;;;;;;;;;5133326;27;20461;-56
2022/08/16 10:34:47;;;;;;;4.37;3.70;;;;;;;;;;5133263;27;20769;-56
2022/08/16 10:37:13;;;;;;;6.43;3.97;;;;;;;;;;5133307;27;20872;-56
2022/08/16 10:39:39;;;;;;;4.88;3.60;;;;;;;;;;5130432;27;20395;-55
2022/08/16 10:42:05;;;;;;;5.50;3.80;;;;;;;;;;5133819;27;20757;-56
2022/08/16 10:44:31;;;;;;;6.32;3.40;;;;;;;;;;5133707;27;20405;-56
2022/08/16 10:46:57;;;;;;;4.97;3.40;;;;;;;;;;5133234;27;20398;-56
2022/08/16 10:49:23;;;;;;;4.33;3.10;;;;;;;;;;5132492;27;20440;-56
2022/08/16 10:51:53;;;;;;;4.93;3.50;;;;;;;;;;5132861;27;20470;-57
2022/08/16 10:54:19;;;;;;;6.95;3.80;;;;;;;;;;5131335;27;20402;-57
2022/08/16 10:56:45;;;;;;;5.25;3.17;;;;;;;;;;5133512;27;20399;-56
2022/08/16 10:59:11;;;;;;;4.90;3.70;;;;;;;;;;5132829;27;20896;-57
2022/08/16 11:01:37;;;;;;;4.35;3.50;;;;;;;;;;5132380;27;20390;-56
2022/08/16 11:04:03;;;;;;;4.35;3.00;;;;;;;;;;5133042;27;20390;-56
2022/08/16 11:06:29;;;;;;;4.45;3.10;;;;;;;;;;5133327;27;20406;-56
2022/08/16 11:08:57;;;;;;;6.22;3.20;;;;;;;;;;5132729;27;20892;-57
2022/08/16 11:11:24;;;;;;;4.72;3.13;;;;;;;;;;5133072;27;20394;-56
2022/08/16 11:13:51;;;;;;;5.63;3.38;;;;;;;;;;5133100;27;20902;-56
2022/08/16 11:16:17;;;;;;;5.00;2.90;;;;;;;;;;5132021;27;20534;-56
2022/08/16 11:18:43;;;;;;;3.65;3.10;;;;;;;;;;5132814;27;20470;-56
2022/08/16 11:21:09;;;;;;;4.25;3.20;;;;;;;;;;5132800;27;20828;-56
2022/08/16 11:23:35;;;;;;;4.72;3.30;;;;;;;;;;5132453;27;20897;-56
2022/08/16 11:26:02;;;;;;;4.25;3.00;;;;;;;;;;5132643;27;20422;-56
2022/08/16 11:28:29;;;;;;;4.78;3.00;;;;;;;;;;5132514;27;20417;-56
2022/08/16 11:30:54;;;;;;;4.45;3.30;;;;;;;;;;5132478;27;20782;-56
2022/08/16 11:33:20;;;;;;;5.63;3.10;;;;;;;;;;5132279;27;20424;-56
2022/08/16 11:35:47;;;;;;;5.40;3.10;;;;;;;;;;5131077;27;20434;-56
2022/08/16 11:38:14;;;;;;;4.60;2.90;;;;;;;;;;5132680;27;20439;-56
2022/08/16 11:40:45;;;;;;;3.30;3.00;;;;;;;;;;5132451;27;20387;-56
2022/08/16 11:43:13;;;;;;;4.07;3.13;;;;;;;;;;5132535;27;20786;-56
2022/08/16 11:45:39;;;;;;;4.20;3.08;;;;;;;;;;5132272;27;20390;-56
2022/08/16 11:48:05;;;;;;;4.97;3.03;;;;;;;;;;5132004;27;20403;-56
2022/08/16 11:50:32;;;;;;;5.28;3.00;;;;;;;;;;5132424;27;20379;-56
2022/08/16 11:52:59;;;;;;;3.95;3.08;;;;;;;;;;5132117;27;20865;-56
2022/08/16 11:55:25;;;;;;;3.63;2.90;;;;;;;;;;5132296;27;20390;-56
2022/08/16 11:57:51;;;;;;;4.35;3.47;;;;;;;;;;5132133;27;20430;-56
2022/08/16 12:00:18;;;;;;;4.25;3.13;;;;;;;;;;5131697;27;20424;-56
2022/08/16 12:02:44;;;;;;;3.88;2.90;;;;;;;;;;5132240;27;20394;-55
2022/08/16 12:05:12;;;;;;;5.45;3.28;;;;;;;;;;5131978;27;20478;-55
2022/08/16 12:07:38;;;;;;;4.60;3.50;;;;;;;;;;5131928;27;21082;-55
2022/08/16 12:10:05;;;;;;;5.10;3.60;;;;;;;;;;5131928;27;20523;-56
2022/08/16 12:12:31;;;;;;;6.10;3.58;;;;;;;;;;5130886;27;20481;-56
2022/08/16 12:14:57;;;;;;;4.20;3.00;;;;;;;;;;5131652;27;20490;-56
2022/08/16 12:17:25;;;;;;;4.10;3.30;;;;;;;;;;5131847;27;20470;-57
2022/08/16 12:19:51;;;;;;;5.28;3.00;;;;;;;;;;5131732;27;20808;-55
2022/08/16 12:22:17;;;;;;;4.07;3.40;;;;;;;;;;5131252;27;20486;-56
2022/08/16 12:24:43;;;;;;;4.00;2.92;;;;;;;;;;5131217;27;20426;-56
2022/08/16 12:27:09;;;;;;;3.30;3.00;;;;;;;;;;5131603;27;20394;-56
2022/08/16 12:29:35;;;;;;;3.30;3.00;;;;;;;;;;5131611;27;20418;-57
2022/08/16 12:32:01;;;;;;;4.60;3.08;;;;;;;;;;5131486;27;20394;-57
2022/08/16 12:34:29;;;;;;;4.15;3.00;;;;;;;;;;5131589;27;20949;-57
2022/08/16 12:36:55;;;;;;;4.63;3.08;;;;;;;;;;5131333;27;20471;-57
2022/08/16 12:39:21;;;;;;;3.67;3.00;;;;;;;;;;5131446;27;20957;-57
2022/08/16 12:41:47;;;;;;;3.30;2.95;;;;;;;;;;5130726;27;20458;-56
2022/08/16 12:44:14;;;;;;;3.92;2.92;;;;;;;;;;5131054;27;20825;-57
2022/08/16 12:46:40;;;;;;;6.30;3.10;;;;;;;;;;5130339;27;20399;-57
2022/08/16 12:49:07;;;;;;;4.35;3.05;;;;;;;;;;5131006;27;20445;-57
2022/08/16 12:51:36;;;;;;;4.45;3.00;;;;;;;;;;5131328;27;20402;-56
2022/08/16 12:54:04;;;;;;;4.05;2.80;;;;;;;;;;5131329;27;20432;-56
2022/08/16 12:56:32;;;;;;;4.60;3.05;;;;;;;;;;5131505;27;20390;-56
2022/08/16 12:58:59;;;;;;;4.55;2.92;;;;;;;;;;5131187;27;20868;-57
2022/08/16 13:01:27;;;;;;;3.97;3.00;;;;;;;;;;5131224;27;20455;-56
2022/08/16 13:03:54;;;;;;;6.45;3.45;;;;;;;;;;5131050;27;20395;-56
2022/08/16 13:06:20;;;;;;;3.65;3.33;;;;;;;;;;5130543;28;20397;-57
2022/08/16 13:08:47;;;;;;;5.75;3.00;;;;;;;;;;5130823;28;20422;-55
2022/08/16 13:11:15;;;;;;;6.65;3.17;;;;;;;;;;5134377;27;20405;-56
2022/08/16 13:13:41;;;;;;;3.20;2.90;;;;;;;;;;5135593;27;20391;-56
2022/08/16 13:16:07;;;;;;;3.80;2.92;;;;;;;;;;5135188;27;20394;-56
2022/08/16 13:18:34;;;;;;;5.65;3.10;;;;;;;;;;5135307;27;20489;-56
2022/08/16 13:21:01;;;;;;;4.30;3.03;;;;;;;;;;5133939;27;20812;-56
2022/08/16 13:23:27;;;;;;;6.20;3.38;;;;;;;;;;5135586;27;20394;-55
2022/08/16 13:25:56;;;;;;;3.85;3.08;;;;;;;;;;5135176;27;20428;-55
2022/08/16 13:28:22;;;;;;;3.90;3.03;;;;;;;;;;5134986;27;20441;-56
2022/08/16 13:30:49;;;;;;;4.27;3.10;;;;;;;;;;5134928;27;20889;-56
2022/08/16 13:33:16;;;;;;;5.97;3.15;;;;;;;;;;5135057;27;20768;-56
2022/08/16 13:35:43;;;;;;;4.70;3.17;;;;;;;;;;5135370;27;20386;-56
2022/08/16 13:38:09;;;;;;;7.72;3.38;;;;;;;;;;5135146;27;20753;-56
2022/08/16 13:40:35;;;;;;;5.70;2.95;;;;;;;;;;5135349;27;20401;-56
2022/08/16 13:43:03;;;;;;;4.78;3.10;;;;;;;;;;5135334;27;20396;-56
2022/08/16 13:45:29;;;;;;;4.40;3.13;;;;;;;;;;5135612;27;20812;-57
2022/08/16 13:47:55;;;;;;;5.70;3.38;;;;;;;;;;5124795;27;20483;-56
2022/08/16 13:50:21;;;;;;;3.20;2.90;;;;;;;;;;5131594;27;20514;-57
2022/08/16 13:52:47;;;;;;;3.83;3.07;;;;;;;;;;5115175;27;20400;-57
2022/08/16 13:55:13;;;;;;;4.70;3.30;;;;;;;;;;5112534;28;20461;-56
2022/08/16 13:57:39;;;;;;;4.43;3.20;;;;;;;;;;5113603;28;20798;-54
2022/08/16 14:00:08;;;;;;;3.95;2.95;;;;;;;;;;5113815;28;20392;-58
2022/08/16 14:02:34;;;;;;;3.77;2.97;;;;;;;;;;5113970;28;20406;-57
2022/08/16 14:05:00;;;;;;;4.43;3.03;;;;;;;;;;5113769;28;20427;-57
2022/08/16 14:07:26;;;;;;;3.83;3.00;;;;;;;;;;5112039;28;20404;-55
2022/08/16 14:09:52;;;;;;;5.37;3.17;;;;;;;;;;5113885;28;20747;-55
2022/08/16 14:12:20;;;;;;;4.53;3.10;;;;;;;;;;5113707;28;20388;-56
2022/08/16 14:14:46;;;;;;;5.63;3.10;;;;;;;;;;5112055;28;20409;-55
2022/08/16 14:17:14;;;;;;;3.72;2.92;;;;;;;;;;5113358;28;20939;-55
2022/08/16 14:19:40;;;;;;;3.97;3.03;;;;;;;;;;5112315;28;20392;-55
2022/08/16 14:22:07;;;;;;;3.40;3.10;;;;;;;;;;5112955;28;20445;-55
2022/08/16 14:24:33;;;;;;;6.38;3.38;;;;;;;;;;5113626;28;20392;-57
2022/08/16 14:26:59;;;;;;;3.85;2.67;;;;;;;;;;5113589;28;20411;-55
2022/08/16 14:29:25;;;;;;;4.57;3.00;;;;;;;;;;5112125;28;20420;-55
2022/08/16 14:31:51;;;;;;;5.95;3.20;;;;;;;;;;5112393;28;20484;-56
2022/08/16 14:34:18;;;;;;;3.47;3.13;;;;;;;;;;5113193;28;20909;-57
2022/08/16 14:36:44;;;;;;;3.50;2.85;;;;;;;;;;5112506;28;20400;-55
2022/08/16 14:39:11;;;;;;;3.22;2.53;;;;;;;;;;5113197;28;20385;-56
2022/08/16 14:41:37;;;;;;;3.87;3.10;;;;;;;;;;5113237;28;20416;-55
2022/08/16 14:44:03;;;;;;;4.77;3.00;;;;;;;;;;5113174;28;20840;-56